createdAt,value
2022-12-18T07:55:47.931Z,23.30
2022-12-18T07:58:18.581Z,25.08
2022-12-18T08:00:45.884Z,25.70
2022-12-18T08:03:15.311Z,24.52
2022-12-18T08:05:42.576Z,21.77
2022-12-18T08:08:09.861Z,22.95
2022-12-18T08:10:38.263Z,25.13
2022-12-18T08:13:05.550Z,23.85
2022-12-18T08:15:32.819Z,25.10
2022-12-18T08:18:00.132Z,25.08
2022-12-18T08:20:27.470Z,24.95
2022-12-18T08:22:55.176Z,22.88
2022-12-18T08:25:22.476Z,23.98
2022-12-18T08:27:49.763Z,24.95
2022-12-18T08:30:17.127Z,25.20
2022-12-18T08:32:45.103Z,25.83
2022-12-18T08:35:13.006Z,25.90
2022-12-18T08:37:40.297Z,26.95
2022-12-18T08:40:09.872Z,25.77
2022-12-18T08:42:56.133Z,25.67
2022-12-18T08:45:23.396Z,23.80
2022-12-18T08:47:50.656Z,22.33
2022-12-18T08:50:18.329Z,23.35
2022-12-18T08:52:45.603Z,24.98
2022-12-18T08:55:14.455Z,23.50
2022-12-18T08:57:41.751Z,25.15
2022-12-18T09:00:10.700Z,24.40
2022-12-18T09:02:38.061Z,25.75
2022-12-18T09:05:06.307Z,24.63
2022-12-18T09:07:33.580Z,25.15
2022-12-18T09:10:00.937Z,24.95
2022-12-18T09:12:28.212Z,25.58
2022-12-18T09:14:55.550Z,23.30
2022-12-18T09:17:23.096Z,25.45
2022-12-18T09:19:50.503Z,24.40
2022-12-18T09:22:17.769Z,24.20
2022-12-18T09:24:45.033Z,24.88
2022-12-18T09:27:12.294Z,24.90
2022-12-18T09:29:39.578Z,24.10
2022-12-18T09:32:06.959Z,24.17
2022-12-18T09:34:34.339Z,25.77
2022-12-18T09:37:01.647Z,26.20
2022-12-18T09:39:28.911Z,25.58
2022-12-18T09:42:00.426Z,24.45
2022-12-18T09:44:45.098Z,24.60
2022-12-18T09:47:35.428Z,24.30
2022-12-18T09:50:31.038Z,24.30
2022-12-18T09:53:06.814Z,23.08
2022-12-18T09:55:43.929Z,23.63
2022-12-18T09:58:30.728Z,22.27
2022-12-18T10:00:58.821Z,22.05
2022-12-18T10:03:26.519Z,22.52
2022-12-18T10:06:33.779Z,23.80
2022-12-18T10:10:28.524Z,23.25
2022-12-18T10:13:50.951Z,22.48
2022-12-18T10:16:32.503Z,23.10
2022-12-18T10:19:42.484Z,21.10
2022-12-18T10:22:43.422Z,22.50
2022-12-18T10:25:48.930Z,21.85
2022-12-18T10:28:19.804Z,22.98
2022-12-18T10:30:47.598Z,23.73
2022-12-18T10:33:24.548Z,21.85
2022-12-18T10:35:52.704Z,22.38
2022-12-18T10:38:20.238Z,22.77
2022-12-18T10:41:26.862Z,22.67
2022-12-18T10:44:23.949Z,21.05
2022-12-18T10:47:10.162Z,20.73
2022-12-18T10:49:53.667Z,21.13
2022-12-18T10:52:26.950Z,21.35
2022-12-18T10:55:04.215Z,23.05
2022-12-18T10:57:41.496Z,23.08
2022-12-18T11:00:32.967Z,22.45
2022-12-18T11:03:00.755Z,22.48
2022-12-18T11:05:34.932Z,21.55
2022-12-18T11:08:03.495Z,22.33
2022-12-18T11:10:40.148Z,21.95
2022-12-18T11:13:25.358Z,20.73
2022-12-18T11:15:53.594Z,21.63
2022-12-18T11:18:31.083Z,22.10
2022-12-18T11:21:08.620Z,22.85
2022-12-18T11:23:38.299Z,23.15
2022-12-18T11:26:07.036Z,21.90
2022-12-18T11:29:08.334Z,21.33
2022-12-18T11:31:35.666Z,21.48
2022-12-18T11:34:34.271Z,21.40
2022-12-18T11:37:04.430Z,22.65
2022-12-18T11:39:58.406Z,21.70
2022-12-18T11:42:52.833Z,21.83
2022-12-18T11:45:47.547Z,22.85
2022-12-18T11:48:44.254Z,22.40
2022-12-18T11:51:29.551Z,21.35
2022-12-18T11:53:56.842Z,20.73
2022-12-18T11:57:05.281Z,21.58
2022-12-18T12:00:13.234Z,21.73
2022-12-18T12:03:22.664Z,21.63
2022-12-18T12:06:26.433Z,21.10
2022-12-18T12:09:58.778Z,21.13
2022-12-18T12:13:28.259Z,21.85
2022-12-18T12:16:38.679Z,20.63
2022-12-18T12:19:45.116Z,19.52
2022-12-18T12:22:59.414Z,21.48
2022-12-18T12:25:50.933Z,20.63
2022-12-18T12:29:21.417Z,21.83
2022-12-18T12:32:46.077Z,20.92
2022-12-18T12:36:03.976Z,20.42
2022-12-18T12:38:51.645Z,20.95
2022-12-18T12:41:49.919Z,22.35
2022-12-18T12:44:29.329Z,20.15
2022-12-18T12:47:11.706Z,20.02
2022-12-18T12:49:41.007Z,20.77
2022-12-18T12:52:36.719Z,20.92
2022-12-18T12:55:14.917Z,20.27
2022-12-18T12:58:16.160Z,19.83
2022-12-18T13:01:19.919Z,20.60
2022-12-18T13:04:16.344Z,20.35
2022-12-18T13:07:14.920Z,20.38
2022-12-18T13:10:23.724Z,20.35
2022-12-18T13:16:09.108Z,19.23
2022-12-18T13:18:36.940Z,19.63
2022-12-18T13:21:35.470Z,18.92
2022-12-18T13:24:31.937Z,19.80
2022-12-18T13:26:59.799Z,19.10
2022-12-18T13:29:56.482Z,20.05
2022-12-18T13:32:27.375Z,19.20
2022-12-18T13:35:22.798Z,20.52
2022-12-18T13:37:55.797Z,20.38
2022-12-18T13:40:42.074Z,19.15
2022-12-18T13:43:30.892Z,19.90
2022-12-18T13:46:47.100Z,18.67
2022-12-18T13:49:14.266Z,19.33
2022-12-18T13:51:53.179Z,18.45
2022-12-18T13:54:41.517Z,19.63
2022-12-18T13:57:41.763Z,19.63
2022-12-18T14:00:30.683Z,18.42
2022-12-18T14:03:00.438Z,20.33
2022-12-18T14:05:39.391Z,19.55
2022-12-18T14:10:50.894Z,19.40
2022-12-18T14:13:42.991Z,19.25
2022-12-18T14:16:17.741Z,18.88
2022-12-18T14:18:59.112Z,20.02
2022-12-18T14:21:31.683Z,19.55
2022-12-18T14:24:21.822Z,19.95
2022-12-18T14:26:51.848Z,14.50
2022-12-18T14:29:32.034Z,19.38
2022-12-18T14:32:13.355Z,19.77
2022-12-18T14:34:52.172Z,19.35
2022-12-18T14:37:26.710Z,18.40
2022-12-18T14:40:11.285Z,19.42
2022-12-18T14:42:39.084Z,17.65
2022-12-18T14:45:43.161Z,19.60
2022-12-18T14:48:35.002Z,18.73
2022-12-18T14:51:28.939Z,18.73
2022-12-18T14:54:16.086Z,19.88
2022-12-18T14:57:22.135Z,18.55
2022-12-18T14:59:49.934Z,18.42
2022-12-18T15:02:27.662Z,18.77
2022-12-18T15:05:27.740Z,17.75
2022-12-18T15:07:59.863Z,18.42
2022-12-18T15:10:34.293Z,19.70
2022-12-18T15:13:02.410Z,17.52
2022-12-18T15:15:36.922Z,16.75
2022-12-18T15:18:11.322Z,18.02
2022-12-18T15:21:00.188Z,18.10
2022-12-18T15:23:45.406Z,18.58
2022-12-18T15:26:18.098Z,18.15
2022-12-18T15:28:56.920Z,17.55
2022-12-18T15:31:36.364Z,19.08
2022-12-18T15:34:14.584Z,17.20
2022-12-18T15:36:42.155Z,17.70
2022-12-18T15:39:14.169Z,17.02
2022-12-18T15:42:01.917Z,17.40
2022-12-18T15:44:29.714Z,17.10
2022-12-18T15:46:57.236Z,18.65
2022-12-18T15:49:24.731Z,16.90
2022-12-18T15:51:59.138Z,17.30
2022-12-18T15:54:45.584Z,17.15
2022-12-18T15:57:26.374Z,17.25
2022-12-18T16:00:00.097Z,18.10
2022-12-18T16:02:29.513Z,17.65
2022-12-18T16:04:57.562Z,12.13
2022-12-18T16:07:28.154Z,17.15
2022-12-18T16:09:58.820Z,17.25
2022-12-18T16:12:28.207Z,19.08
2022-12-18T16:14:55.481Z,17.42
2022-12-18T16:17:22.734Z,16.80
2022-12-18T16:19:50.092Z,16.40
2022-12-18T16:22:29.785Z,16.73
2022-12-18T16:24:58.913Z,16.80
2022-12-18T16:27:26.642Z,17.95
2022-12-18T16:29:53.978Z,20.38
2022-12-18T16:32:23.592Z,17.73
2022-12-18T16:37:19.111Z,18.05
2022-12-18T16:39:46.549Z,17.98
2022-12-18T16:42:20.528Z,17.27
2022-12-18T16:44:50.533Z,17.48
2022-12-18T16:47:19.405Z,18.20
2022-12-18T16:49:47.229Z,17.92
2022-12-18T16:52:15.019Z,17.60
2022-12-18T16:54:42.304Z,17.35
2022-12-18T16:57:15.099Z,17.73
2022-12-18T16:59:42.585Z,18.83
2022-12-18T17:02:23.749Z,17.63
2022-12-18T17:04:57.895Z,19.42
2022-12-18T17:07:26.495Z,18.08
2022-12-18T17:09:54.334Z,18.13
2022-12-18T17:12:23.604Z,18.33
2022-12-18T17:14:51.615Z,18.23
2022-12-18T17:17:21.699Z,19.90
2022-12-18T17:19:50.390Z,18.52
2022-12-18T17:22:17.744Z,19.33
2022-12-18T17:24:46.154Z,20.27
2022-12-18T17:27:13.447Z,21.13
2022-12-18T17:29:46.837Z,20.25
2022-12-18T17:32:15.113Z,18.48
2022-12-18T17:34:42.429Z,19.70
2022-12-18T17:37:09.856Z,19.90
2022-12-18T17:39:37.343Z,20.33
2022-12-18T17:42:05.247Z,20.42
2022-12-18T17:44:34.341Z,20.13
2022-12-18T17:47:01.801Z,19.05
2022-12-18T17:49:29.396Z,20.85
2022-12-18T17:51:56.642Z,20.60
2022-12-18T17:54:23.890Z,20.23
2022-12-18T17:56:51.180Z,19.00
2022-12-18T17:59:18.474Z,19.77
2022-12-18T18:01:46.022Z,19.52
2022-12-18T18:04:14.645Z,19.85
2022-12-18T18:06:42.312Z,20.02
2022-12-18T18:09:16.312Z,21.48
2022-12-18T18:12:06.114Z,20.80
2022-12-18T18:14:33.662Z,21.98
2022-12-18T18:17:04.287Z,20.67
2022-12-18T18:19:34.212Z,21.20
2022-12-18T18:22:02.931Z,21.83
2022-12-18T18:24:30.743Z,22.95
2022-12-18T18:27:00.008Z,22.13
2022-12-18T18:29:30.496Z,23.75
2022-12-18T18:34:31.930Z,21.95
2022-12-18T18:37:00.534Z,21.58
2022-12-18T18:39:30.060Z,23.38
2022-12-18T18:41:57.459Z,22.50
2022-12-18T18:44:26.025Z,23.55
2022-12-18T18:46:58.653Z,24.10
2022-12-18T18:49:28.333Z,23.33
2022-12-18T18:51:57.369Z,23.50
2022-12-18T18:54:26.491Z,23.40
2022-12-18T18:57:19.927Z,22.95
2022-12-18T18:59:42.351Z,23.88
2022-12-18T19:02:15.641Z,24.08
2022-12-18T19:04:45.880Z,25.20
2022-12-18T19:07:18.175Z,24.42
2022-12-18T19:09:57.895Z,24.17
2022-12-18T19:12:47.867Z,25.60
2022-12-18T19:15:15.146Z,23.67
2022-12-18T19:17:42.510Z,24.00
2022-12-18T19:20:14.416Z,24.90
2022-12-18T19:22:41.745Z,22.90
2022-12-18T19:25:10.182Z,24.52
2022-12-18T19:27:40.010Z,25.55
2022-12-18T19:30:08.927Z,23.23
2022-12-18T19:32:36.340Z,24.58
2022-12-18T19:35:04.043Z,26.90
2022-12-18T19:37:31.513Z,26.02
2022-12-18T19:39:58.867Z,25.60
2022-12-18T19:42:33.425Z,26.98
2022-12-18T19:45:02.869Z,25.88
2022-12-18T19:47:32.376Z,24.85
2022-12-18T19:49:59.671Z,25.80
2022-12-18T19:52:26.983Z,26.02
2022-12-18T19:54:54.347Z,27.20
2022-12-18T19:57:21.610Z,26.05
2022-12-18T19:59:48.947Z,25.38
2022-12-18T20:02:16.536Z,25.55
2022-12-18T20:04:43.934Z,27.60
2022-12-18T20:07:11.226Z,26.30
2022-12-18T20:09:38.800Z,27.02
2022-12-18T20:12:07.130Z,27.50
2022-12-18T20:14:34.640Z,27.83
2022-12-18T20:17:01.961Z,26.25
2022-12-18T20:19:29.983Z,27.33
2022-12-18T20:21:57.515Z,28.17
2022-12-18T20:24:24.866Z,27.27
2022-12-18T20:26:52.287Z,26.15
2022-12-18T20:29:19.550Z,27.25
2022-12-18T20:31:46.874Z,27.88
2022-12-18T20:34:14.241Z,27.23
2022-12-18T20:36:42.154Z,26.58
2022-12-18T20:39:10.128Z,26.42
2022-12-18T20:41:40.010Z,27.60
2022-12-18T20:44:22.597Z,27.95
2022-12-18T20:47:00.266Z,28.13
2022-12-18T20:49:30.900Z,27.30
2022-12-18T20:51:58.567Z,28.83
2022-12-18T20:54:27.889Z,28.48
2022-12-18T20:56:56.645Z,28.90
2022-12-18T20:59:25.642Z,27.73
2022-12-18T21:01:56.506Z,27.88
2022-12-18T21:04:24.918Z,29.38
2022-12-18T21:06:57.965Z,28.75
2022-12-18T21:09:38.203Z,27.90
2022-12-18T21:12:38.903Z,28.77
2022-12-18T21:15:11.009Z,27.23
2022-12-18T21:17:41.107Z,29.63
2022-12-18T21:20:17.799Z,29.88
2022-12-18T21:22:47.244Z,30.38
2022-12-18T21:25:14.601Z,31.33
2022-12-18T21:27:41.896Z,28.60
2022-12-18T21:30:10.005Z,29.13
2022-12-18T21:32:37.302Z,29.75
2022-12-18T21:35:05.358Z,29.52
2022-12-18T21:37:32.703Z,30.30
2022-12-18T21:39:59.986Z,29.95
2022-12-18T21:42:45.789Z,30.38
2022-12-18T21:45:13.079Z,28.13
2022-12-18T21:47:40.338Z,28.65
2022-12-18T21:50:08.127Z,28.77
2022-12-18T21:52:35.420Z,28.10
2022-12-18T21:55:08.897Z,29.58
2022-12-18T21:57:39.436Z,31.08
2022-12-18T22:00:18.371Z,29.17
2022-12-18T22:03:13.364Z,29.33
2022-12-18T22:05:36.379Z,29.77
2022-12-18T22:08:03.976Z,27.83
2022-12-18T22:10:31.322Z,29.92
2022-12-18T22:12:58.600Z,29.65
2022-12-18T22:15:25.879Z,30.98
2022-12-18T22:17:59.798Z,30.30
2022-12-18T22:20:29.715Z,29.90
2022-12-18T22:22:58.535Z,27.85
2022-12-18T22:25:25.840Z,29.02
2022-12-18T22:28:11.774Z,29.73
2022-12-18T22:30:39.424Z,29.23
2022-12-18T22:33:06.898Z,30.42
2022-12-18T22:35:34.218Z,30.15
2022-12-18T22:38:01.829Z,28.52
2022-12-18T22:40:29.631Z,27.30
2022-12-18T22:42:57.287Z,29.27
2022-12-18T22:45:27.908Z,28.95
2022-12-18T22:47:55.344Z,29.10
2022-12-18T22:50:22.637Z,28.35
2022-12-18T22:52:49.919Z,28.20
2022-12-18T22:55:17.272Z,28.65
2022-12-18T22:57:48.787Z,29.00
2022-12-18T23:00:21.026Z,27.17
2022-12-18T23:03:00.396Z,28.15
2022-12-18T23:05:30.811Z,29.35
2022-12-18T23:07:59.408Z,27.83
2022-12-18T23:10:27.292Z,28.90
2022-12-18T23:12:54.711Z,28.30
2022-12-18T23:15:27.765Z,27.85
2022-12-18T23:17:59.671Z,27.88
2022-12-18T23:20:30.551Z,27.92
2022-12-18T23:22:58.415Z,27.98
2022-12-18T23:25:25.682Z,28.05
2022-12-18T23:27:52.947Z,28.05
2022-12-18T23:30:20.198Z,27.85
2022-12-18T23:32:50.281Z,28.25
2022-12-18T23:35:18.430Z,27.80
2022-12-18T23:38:03.392Z,28.73
2022-12-18T23:40:30.822Z,28.60
2022-12-18T23:43:00.172Z,29.00
2022-12-18T23:45:27.510Z,27.23
2022-12-18T23:47:54.779Z,28.23
